sensor_id;sensor_type;location;lat;lon;timestamp;P1;durP1;ratioP1;P2;durP2;ratioP2
72728;SDS011;60843;52.062;4.508;2023-07-31T00:01:25;15.50;;;3.80;;
72728;SDS011;60843;52.062;4.508;2023-07-31T00:03:50;24.63;;;4.40;;
72728;SDS011;60843;52.062;4.508;2023-07-31T00:06:16;18.63;;;3.50;;
72728;SDS011;60843;52.062;4.508;2023-07-31T00:08:41;18.80;;;4.25;;
72728;SDS011;60843;52.062;4.508;2023-07-31T00:11:07;15.32;;;3.42;;
72728;SDS011;60843;52.062;4.508;2023-07-31T00:13:32;24.93;;;4.47;;
72728;SDS011;60843;52.062;4.508;2023-07-31T00:15:57;18.87;;;3.37;;
72728;SDS011;60843;52.062;4.508;2023-07-31T00:18:23;23.30;;;4.25;;
72728;SDS011;60843;52.062;4.508;2023-07-31T00:20:48;29.02;;;4.53;;
72728;SDS011;60843;52.062;4.508;2023-07-31T00:23:13;22.83;;;4.17;;
72728;SDS011;60843;52.062;4.508;2023-07-31T00:25:40;23.43;;;4.47;;
72728;SDS011;60843;52.062;4.508;2023-07-31T00:28:05;24.45;;;4.95;;
72728;SDS011;60843;52.062;4.508;2023-07-31T00:30:31;22.03;;;5.53;;
72728;SDS011;60843;52.062;4.508;2023-07-31T00:32:56;20.45;;;3.78;;
72728;SDS011;60843;52.062;4.508;2023-07-31T00:35:21;16.87;;;3.20;;
72728;SDS011;60843;52.062;4.508;2023-07-31T00:37:47;22.00;;;3.97;;
72728;SDS011;60843;52.062;4.508;2023-07-31T00:40:12;17.83;;;3.43;;
72728;SDS011;60843;52.062;4.508;2023-07-31T00:42:38;19.75;;;4.05;;
72728;SDS011;60843;52.062;4.508;2023-07-31T00:45:04;16.20;;;3.40;;
72728;SDS011;60843;52.062;4.508;2023-07-31T00:47:30;11.77;;;3.63;;
72728;SDS011;60843;52.062;4.508;2023-07-31T00:49:55;21.73;;;4.17;;
72728;SDS011;60843;52.062;4.508;2023-07-31T00:52:21;22.53;;;3.47;;
72728;SDS011;60843;52.062;4.508;2023-07-31T00:54:46;21.80;;;3.93;;
72728;SDS011;60843;52.062;4.508;2023-07-31T00:57:11;17.63;;;3.90;;
72728;SDS011;60843;52.062;4.508;2023-07-31T00:59:37;22.52;;;4.18;;
72728;SDS011;60843;52.062;4.508;2023-07-31T01:02:02;19.10;;;3.87;;
72728;SDS011;60843;52.062;4.508;2023-07-31T01:04:29;18.17;;;3.67;;
72728;SDS011;60843;52.062;4.508;2023-07-31T01:12:24;13.30;;;3.92;;
72728;SDS011;60843;52.062;4.508;2023-07-31T01:15:01;15.88;;;3.70;;
72728;SDS011;60843;52.062;4.508;2023-07-31T01:17:37;15.07;;;3.00;;
72728;SDS011;60843;52.062;4.508;2023-07-31T01:20:03;18.63;;;3.70;;
72728;SDS011;60843;52.062;4.508;2023-07-31T01:25:11;24.58;;;3.72;;
72728;SDS011;60843;52.062;4.508;2023-07-31T01:27:49;15.52;;;3.80;;
72728;SDS011;60843;52.062;4.508;2023-07-31T01:30:21;18.30;;;4.20;;
72728;SDS011;60843;52.062;4.508;2023-07-31T01:32:50;25.75;;;4.00;;
72728;SDS011;60843;52.062;4.508;2023-07-31T01:35:16;18.92;;;4.15;;
72728;SDS011;60843;52.062;4.508;2023-07-31T01:37:42;19.98;;;4.43;;
72728;SDS011;60843;52.062;4.508;2023-07-31T01:40:07;20.67;;;4.73;;
72728;SDS011;60843;52.062;4.508;2023-07-31T01:42:33;23.17;;;3.83;;
72728;SDS011;60843;52.062;4.508;2023-07-31T01:44:58;23.10;;;4.10;;
72728;SDS011;60843;52.062;4.508;2023-07-31T01:47:23;21.50;;;4.73;;
72728;SDS011;60843;52.062;4.508;2023-07-31T01:49:49;21.63;;;3.87;;
72728;SDS011;60843;52.062;4.508;2023-07-31T01:52:14;17.60;;;4.07;;
72728;SDS011;60843;52.062;4.508;2023-07-31T01:54:40;24.30;;;4.10;;
72728;SDS011;60843;52.062;4.508;2023-07-31T01:57:05;19.50;;;3.73;;
72728;SDS011;60843;52.062;4.508;2023-07-31T01:59:31;17.70;;;3.85;;
72728;SDS011;60843;52.062;4.508;2023-07-31T02:01:56;18.47;;;3.53;;
72728;SDS011;60843;52.062;4.508;2023-07-31T02:04:21;17.27;;;3.90;;
72728;SDS011;60843;52.062;4.508;2023-07-31T02:06:47;18.33;;;3.58;;
72728;SDS011;60843;52.062;4.508;2023-07-31T02:09:12;22.97;;;4.70;;
72728;SDS011;60843;52.062;4.508;2023-07-31T02:11:37;18.20;;;4.00;;
72728;SDS011;60843;52.062;4.508;2023-07-31T02:14:03;16.80;;;3.40;;
72728;SDS011;60843;52.062;4.508;2023-07-31T02:16:28;24.53;;;4.40;;
72728;SDS011;60843;52.062;4.508;2023-07-31T02:18:53;24.43;;;4.67;;
72728;SDS011;60843;52.062;4.508;2023-07-31T02:21:19;22.13;;;4.33;;
72728;SDS011;60843;52.062;4.508;2023-07-31T02:23:44;17.73;;;4.10;;
72728;SDS011;60843;52.062;4.508;2023-07-31T02:26:09;25.70;;;5.45;;
72728;SDS011;60843;52.062;4.508;2023-07-31T02:28:35;22.67;;;4.50;;
72728;SDS011;60843;52.062;4.508;2023-07-31T02:31:00;19.83;;;4.27;;
72728;SDS011;60843;52.062;4.508;2023-07-31T02:33:25;15.37;;;4.13;;
72728;SDS011;60843;52.062;4.508;2023-07-31T02:35:51;29.50;;;4.78;;
72728;SDS011;60843;52.062;4.508;2023-07-31T02:38:16;19.77;;;3.90;;
72728;SDS011;60843;52.062;4.508;2023-07-31T02:40:42;12.30;;;3.45;;
72728;SDS011;60843;52.062;4.508;2023-07-31T02:43:07;12.27;;;3.53;;
72728;SDS011;60843;52.062;4.508;2023-07-31T02:45:33;22.27;;;4.13;;
72728;SDS011;60843;52.062;4.508;2023-07-31T02:47:58;19.37;;;4.33;;
72728;SDS011;60843;52.062;4.508;2023-07-31T02:50:24;22.25;;;4.22;;
72728;SDS011;60843;52.062;4.508;2023-07-31T02:52:49;20.88;;;3.97;;
72728;SDS011;60843;52.062;4.508;2023-07-31T02:55:15;20.30;;;3.73;;
72728;SDS011;60843;52.062;4.508;2023-07-31T02:57:40;19.93;;;4.00;;
72728;SDS011;60843;52.062;4.508;2023-07-31T03:00:05;16.67;;;4.27;;
72728;SDS011;60843;52.062;4.508;2023-07-31T03:02:31;13.60;;;3.25;;
72728;SDS011;60843;52.062;4.508;2023-07-31T03:04:57;22.55;;;3.78;;
72728;SDS011;60843;52.062;4.508;2023-07-31T03:07:22;21.40;;;4.97;;
72728;SDS011;60843;52.062;4.508;2023-07-31T03:09:48;20.97;;;3.83;;
72728;SDS011;60843;52.062;4.508;2023-07-31T03:12:13;20.98;;;5.03;;
72728;SDS011;60843;52.062;4.508;2023-07-31T03:14:38;21.13;;;4.05;;
72728;SDS011;60843;52.062;4.508;2023-07-31T03:17:04;16.40;;;3.93;;
72728;SDS011;60843;52.062;4.508;2023-07-31T03:19:32;18.77;;;3.80;;
72728;SDS011;60843;52.062;4.508;2023-07-31T03:21:58;15.13;;;3.78;;
72728;SDS011;60843;52.062;4.508;2023-07-31T03:24:24;18.40;;;3.90;;
72728;SDS011;60843;52.062;4.508;2023-07-31T03:26:50;27.17;;;4.38;;
72728;SDS011;60843;52.062;4.508;2023-07-31T03:29:15;20.43;;;4.67;;
72728;SDS011;60843;52.062;4.508;2023-07-31T03:31:41;16.00;;;3.13;;
72728;SDS011;60843;52.062;4.508;2023-07-31T03:34:06;12.93;;;3.40;;
72728;SDS011;60843;52.062;4.508;2023-07-31T03:36:31;22.40;;;4.03;;
72728;SDS011;60843;52.062;4.508;2023-07-31T03:38:57;13.75;;;3.78;;
72728;SDS011;60843;52.062;4.508;2023-07-31T03:41:22;22.07;;;4.63;;
72728;SDS011;60843;52.062;4.508;2023-07-31T03:43:49;16.60;;;3.93;;
72728;SDS011;60843;52.062;4.508;2023-07-31T03:46:16;17.13;;;3.95;;
72728;SDS011;60843;52.062;4.508;2023-07-31T03:48:42;24.67;;;4.27;;
72728;SDS011;60843;52.062;4.508;2023-07-31T03:51:07;20.05;;;4.15;;
72728;SDS011;60843;52.062;4.508;2023-07-31T03:53:32;18.92;;;3.97;;
72728;SDS011;60843;52.062;4.508;2023-07-31T03:55:58;10.67;;;3.00;;
72728;SDS011;60843;52.062;4.508;2023-07-31T03:58:23;8.93;;;2.90;;
72728;SDS011;60843;52.062;4.508;2023-07-31T04:00:48;11.63;;;2.73;;
72728;SDS011;60843;52.062;4.508;2023-07-31T04:03:14;8.73;;;2.73;;
72728;SDS011;60843;52.062;4.508;2023-07-31T04:05:39;9.17;;;2.40;;
72728;SDS011;60843;52.062;4.508;2023-07-31T04:08:05;8.38;;;1.95;;
72728;SDS011;60843;52.062;4.508;2023-07-31T04:10:30;7.03;;;1.93;;
72728;SDS011;60843;52.062;4.508;2023-07-31T04:12:58;14.23;;;2.13;;
72728;SDS011;60843;52.062;4.508;2023-07-31T04:15:23;10.57;;;2.17;;
72728;SDS011;60843;52.062;4.508;2023-07-31T04:17:48;6.90;;;2.13;;
72728;SDS011;60843;52.062;4.508;2023-07-31T04:20:14;10.87;;;2.10;;
72728;SDS011;60843;52.062;4.508;2023-07-31T04:22:39;8.85;;;1.80;;
72728;SDS011;60843;52.062;4.508;2023-07-31T04:25:05;5.83;;;2.30;;
72728;SDS011;60843;52.062;4.508;2023-07-31T04:27:30;3.53;;;1.30;;
72728;SDS011;60843;52.062;4.508;2023-07-31T04:29:56;4.43;;;1.35;;
72728;SDS011;60843;52.062;4.508;2023-07-31T04:32:21;4.70;;;1.40;;
72728;SDS011;60843;52.062;4.508;2023-07-31T04:34:46;5.33;;;1.13;;
72728;SDS011;60843;52.062;4.508;2023-07-31T04:37:12;5.10;;;1.20;;
72728;SDS011;60843;52.062;4.508;2023-07-31T04:39:39;3.65;;;1.10;;
72728;SDS011;60843;52.062;4.508;2023-07-31T04:42:04;4.88;;;1.70;;
72728;SDS011;60843;52.062;4.508;2023-07-31T04:44:29;2.70;;;1.27;;
72728;SDS011;60843;52.062;4.508;2023-07-31T04:46:55;4.90;;;1.40;;
72728;SDS011;60843;52.062;4.508;2023-07-31T04:49:20;4.77;;;1.70;;
72728;SDS011;60843;52.062;4.508;2023-07-31T04:51:46;3.67;;;1.42;;
72728;SDS011;60843;52.062;4.508;2023-07-31T04:54:11;2.57;;;1.43;;
72728;SDS011;60843;52.062;4.508;2023-07-31T04:56:39;2.88;;;1.48;;
72728;SDS011;60843;52.062;4.508;2023-07-31T04:59:05;5.55;;;1.65;;
72728;SDS011;60843;52.062;4.508;2023-07-31T05:01:30;5.47;;;1.80;;
72728;SDS011;60843;52.062;4.508;2023-07-31T05:03:56;3.73;;;1.67;;
72728;SDS011;60843;52.062;4.508;2023-07-31T05:06:21;8.20;;;2.50;;
72728;SDS011;60843;52.062;4.508;2023-07-31T05:08:46;4.40;;;1.73;;
72728;SDS011;60843;52.062;4.508;2023-07-31T05:11:12;5.63;;;2.10;;
72728;SDS011;60843;52.062;4.508;2023-07-31T05:13:37;5.90;;;1.87;;
72728;SDS011;60843;52.062;4.508;2023-07-31T05:16:03;4.72;;;2.20;;
72728;SDS011;60843;52.062;4.508;2023-07-31T05:18:28;6.17;;;2.10;;
72728;SDS011;60843;52.062;4.508;2023-07-31T05:20:54;6.10;;;2.10;;
72728;SDS011;60843;52.062;4.508;2023-07-31T05:23:19;4.40;;;1.77;;
72728;SDS011;60843;52.062;4.508;2023-07-31T05:25:44;4.35;;;2.08;;
72728;SDS011;60843;52.062;4.508;2023-07-31T05:28:10;3.33;;;1.80;;
72728;SDS011;60843;52.062;4.508;2023-07-31T05:30:37;3.13;;;1.77;;
72728;SDS011;60843;52.062;4.508;2023-07-31T05:33:02;12.00;;;4.87;;
72728;SDS011;60843;52.062;4.508;2023-07-31T05:35:27;16.03;;;5.40;;
72728;SDS011;60843;52.062;4.508;2023-07-31T05:37:53;14.20;;;4.65;;
72728;SDS011;60843;52.062;4.508;2023-07-31T05:40:18;6.20;;;2.50;;
72728;SDS011;60843;52.062;4.508;2023-07-31T05:42:44;22.20;;;7.67;;
72728;SDS011;60843;52.062;4.508;2023-07-31T05:45:09;4.63;;;1.53;;
72728;SDS011;60843;52.062;4.508;2023-07-31T05:47:34;4.70;;;1.70;;
72728;SDS011;60843;52.062;4.508;2023-07-31T05:50:00;2.95;;;1.67;;
72728;SDS011;60843;52.062;4.508;2023-07-31T05:52:25;3.70;;;1.63;;
72728;SDS011;60843;52.062;4.508;2023-07-31T05:54:51;3.67;;;1.40;;
72728;SDS011;60843;52.062;4.508;2023-07-31T05:57:16;3.13;;;1.15;;
72728;SDS011;60843;52.062;4.508;2023-07-31T05:59:42;3.47;;;1.50;;
72728;SDS011;60843;52.062;4.508;2023-07-31T06:02:07;3.88;;;1.13;;
72728;SDS011;60843;52.062;4.508;2023-07-31T06:04:32;3.93;;;1.20;;
72728;SDS011;60843;52.062;4.508;2023-07-31T06:06:58;2.33;;;1.08;;
72728;SDS011;60843;52.062;4.508;2023-07-31T06:09:23;3.45;;;1.20;;
72728;SDS011;60843;52.062;4.508;2023-07-31T06:11:49;2.10;;;0.93;;
72728;SDS011;60843;52.062;4.508;2023-07-31T06:14:15;2.78;;;1.00;;
72728;SDS011;60843;52.062;4.508;2023-07-31T06:16:40;4.90;;;2.40;;
72728;SDS011;60843;52.062;4.508;2023-07-31T06:19:06;23.23;;;7.13;;
72728;SDS011;60843;52.062;4.508;2023-07-31T06:21:32;16.23;;;4.90;;
72728;SDS011;60843;52.062;4.508;2023-07-31T06:23:58;2.03;;;0.80;;
72728;SDS011;60843;52.062;4.508;2023-07-31T06:26:23;1.13;;;0.67;;
72728;SDS011;60843;52.062;4.508;2023-07-31T06:28:48;1.80;;;0.60;;
72728;SDS011;60843;52.062;4.508;2023-07-31T06:31:14;1.43;;;0.60;;
72728;SDS011;60843;52.062;4.508;2023-07-31T06:33:39;2.03;;;0.60;;
72728;SDS011;60843;52.062;4.508;2023-07-31T06:36:04;1.30;;;0.70;;
72728;SDS011;60843;52.062;4.508;2023-07-31T06:38:30;2.87;;;0.70;;
72728;SDS011;60843;52.062;4.508;2023-07-31T06:40:55;2.30;;;0.70;;
72728;SDS011;60843;52.062;4.508;2023-07-31T06:43:20;1.27;;;0.60;;
72728;SDS011;60843;52.062;4.508;2023-07-31T06:45:46;2.67;;;0.70;;
72728;SDS011;60843;52.062;4.508;2023-07-31T06:48:13;2.45;;;0.68;;
72728;SDS011;60843;52.062;4.508;2023-07-31T06:50:39;1.55;;;0.50;;
72728;SDS011;60843;52.062;4.508;2023-07-31T06:53:04;3.40;;;0.63;;
72728;SDS011;60843;52.062;4.508;2023-07-31T06:55:29;2.13;;;0.73;;
72728;SDS011;60843;52.062;4.508;2023-07-31T06:57:55;12.15;;;3.55;;
72728;SDS011;60843;52.062;4.508;2023-07-31T07:00:21;14.93;;;4.15;;
72728;SDS011;60843;52.062;4.508;2023-07-31T07:02:48;7.55;;;2.40;;
72728;SDS011;60843;52.062;4.508;2023-07-31T07:05:14;3.15;;;0.70;;
72728;SDS011;60843;52.062;4.508;2023-07-31T07:07:40;2.15;;;0.70;;
72728;SDS011;60843;52.062;4.508;2023-07-31T07:10:05;1.37;;;0.50;;
72728;SDS011;60843;52.062;4.508;2023-07-31T07:12:32;0.80;;;0.50;;
72728;SDS011;60843;52.062;4.508;2023-07-31T07:14:58;0.70;;;0.40;;
72728;SDS011;60843;52.062;4.508;2023-07-31T07:17:23;0.70;;;0.50;;
72728;SDS011;60843;52.062;4.508;2023-07-31T07:19:49;2.15;;;0.50;;
72728;SDS011;60843;52.062;4.508;2023-07-31T07:22:15;0.70;;;0.40;;
72728;SDS011;60843;52.062;4.508;2023-07-31T07:24:40;0.68;;;0.30;;
72728;SDS011;60843;52.062;4.508;2023-07-31T07:27:06;2.25;;;0.40;;
72728;SDS011;60843;52.062;4.508;2023-07-31T07:29:31;0.68;;;0.38;;
72728;SDS011;60843;52.062;4.508;2023-07-31T07:31:56;0.83;;;0.20;;
72728;SDS011;60843;52.062;4.508;2023-07-31T07:34:22;1.47;;;0.37;;
72728;SDS011;60843;52.062;4.508;2023-07-31T07:36:49;0.52;;;0.30;;
72728;SDS011;60843;52.062;4.508;2023-07-31T07:39:14;1.00;;;0.60;;
72728;SDS011;60843;52.062;4.508;2023-07-31T07:41:40;23.45;;;6.70;;
72728;SDS011;60843;52.062;4.508;2023-07-31T07:44:05;3.22;;;1.20;;
72728;SDS011;60843;52.062;4.508;2023-07-31T07:46:31;38.88;;;10.75;;
72728;SDS011;60843;52.062;4.508;2023-07-31T07:48:56;14.80;;;4.38;;
72728;SDS011;60843;52.062;4.508;2023-07-31T07:51:21;1.87;;;0.50;;
72728;SDS011;60843;52.062;4.508;2023-07-31T07:53:47;1.00;;;0.50;;
72728;SDS011;60843;52.062;4.508;2023-07-31T07:56:12;1.10;;;0.50;;
72728;SDS011;60843;52.062;4.508;2023-07-31T07:58:37;2.10;;;0.70;;
72728;SDS011;60843;52.062;4.508;2023-07-31T08:01:03;1.93;;;0.60;;
72728;SDS011;60843;52.062;4.508;2023-07-31T08:03:28;1.30;;;0.70;;
72728;SDS011;60843;52.062;4.508;2023-07-31T08:05:57;1.10;;;0.50;;
72728;SDS011;60843;52.062;4.508;2023-07-31T08:08:26;2.08;;;0.70;;
72728;SDS011;60843;52.062;4.508;2023-07-31T08:10:51;2.17;;;1.00;;
72728;SDS011;60843;52.062;4.508;2023-07-31T08:13:17;4.73;;;0.90;;
72728;SDS011;60843;52.062;4.508;2023-07-31T08:15:42;6.73;;;0.97;;
72728;SDS011;60843;52.062;4.508;2023-07-31T08:18:08;4.07;;;1.10;;
72728;SDS011;60843;52.062;4.508;2023-07-31T08:20:33;5.13;;;1.02;;
72728;SDS011;60843;52.062;4.508;2023-07-31T08:22:59;11.98;;;3.92;;
72728;SDS011;60843;52.062;4.508;2023-07-31T08:25:24;5.90;;;1.67;;
72728;SDS011;60843;52.062;4.508;2023-07-31T08:27:50;11.70;;;1.88;;
72728;SDS011;60843;52.062;4.508;2023-07-31T08:30:17;8.70;;;1.67;;
72728;SDS011;60843;52.062;4.508;2023-07-31T08:32:43;11.57;;;2.03;;
72728;SDS011;60843;52.062;4.508;2023-07-31T08:35:08;6.80;;;1.67;;
72728;SDS011;60843;52.062;4.508;2023-07-31T08:37:34;10.40;;;1.77;;
72728;SDS011;60843;52.062;4.508;2023-07-31T08:39:59;8.32;;;1.55;;
72728;SDS011;60843;52.062;4.508;2023-07-31T08:42:24;9.63;;;1.57;;
72728;SDS011;60843;52.062;4.508;2023-07-31T08:44:53;8.32;;;1.55;;
72728;SDS011;60843;52.062;4.508;2023-07-31T08:47:20;11.23;;;1.60;;
72728;SDS011;60843;52.062;4.508;2023-07-31T08:49:46;13.43;;;2.03;;
72728;SDS011;60843;52.062;4.508;2023-07-31T08:52:12;11.10;;;1.75;;
72728;SDS011;60843;52.062;4.508;2023-07-31T08:54:39;10.30;;;2.00;;
72728;SDS011;60843;52.062;4.508;2023-07-31T08:57:05;7.53;;;1.80;;
72728;SDS011;60843;52.062;4.508;2023-07-31T08:59:31;13.48;;;1.83;;
72728;SDS011;60843;52.062;4.508;2023-07-31T09:01:57;14.43;;;2.10;;
72728;SDS011;60843;52.062;4.508;2023-07-31T09:04:25;16.88;;;2.10;;
72728;SDS011;60843;52.062;4.508;2023-07-31T09:06:51;14.05;;;2.35;;
72728;SDS011;60843;52.062;4.508;2023-07-31T09:09:22;13.85;;;2.28;;
72728;SDS011;60843;52.062;4.508;2023-07-31T09:11:48;12.55;;;2.22;;
72728;SDS011;60843;52.062;4.508;2023-07-31T09:14:14;10.88;;;1.90;;
72728;SDS011;60843;52.062;4.508;2023-07-31T09:16:56;8.98;;;1.58;;
72728;SDS011;60843;52.062;4.508;2023-07-31T09:19:27;8.82;;;1.77;;
72728;SDS011;60843;52.062;4.508;2023-07-31T09:22:01;8.93;;;1.42;;
72728;SDS011;60843;52.062;4.508;2023-07-31T09:24:31;8.40;;;1.42;;
72728;SDS011;60843;52.062;4.508;2023-07-31T09:26:57;5.57;;;1.17;;
72728;SDS011;60843;52.062;4.508;2023-07-31T09:29:24;10.68;;;2.20;;
72728;SDS011;60843;52.062;4.508;2023-07-31T09:31:51;6.32;;;1.33;;
72728;SDS011;60843;52.062;4.508;2023-07-31T09:34:17;7.68;;;1.95;;
72728;SDS011;60843;52.062;4.508;2023-07-31T09:36:43;6.43;;;1.58;;
72728;SDS011;60843;52.062;4.508;2023-07-31T09:39:13;7.35;;;1.48;;
72728;SDS011;60843;52.062;4.508;2023-07-31T09:41:42;5.25;;;1.40;;
72728;SDS011;60843;52.062;4.508;2023-07-31T09:44:08;6.78;;;1.70;;
72728;SDS011;60843;52.062;4.508;2023-07-31T09:46:37;13.37;;;1.77;;
72728;SDS011;60843;52.062;4.508;2023-07-31T09:49:12;15.98;;;1.95;;
72728;SDS011;60843;52.062;4.508;2023-07-31T09:51:39;8.98;;;1.63;;
72728;SDS011;60843;52.062;4.508;2023-07-31T09:54:12;9.70;;;2.45;;
72728;SDS011;60843;52.062;4.508;2023-07-31T09:56:42;4.55;;;1.23;;
72728;SDS011;60843;52.062;4.508;2023-07-31T09:59:10;12.60;;;1.80;;
72728;SDS011;60843;52.062;4.508;2023-07-31T10:01:37;8.23;;;1.65;;
72728;SDS011;60843;52.062;4.508;2023-07-31T10:04:04;8.63;;;1.60;;
72728;SDS011;60843;52.062;4.508;2023-07-31T10:06:30;10.52;;;1.58;;
72728;SDS011;60843;52.062;4.508;2023-07-31T10:08:56;9.23;;;2.05;;
72728;SDS011;60843;52.062;4.508;2023-07-31T10:11:22;10.13;;;1.73;;
72728;SDS011;60843;52.062;4.508;2023-07-31T10:13:47;6.68;;;1.50;;
72728;SDS011;60843;52.062;4.508;2023-07-31T10:16:13;9.93;;;1.52;;
72728;SDS011;60843;52.062;4.508;2023-07-31T10:18:39;9.27;;;1.58;;
72728;SDS011;60843;52.062;4.508;2023-07-31T10:21:05;10.02;;;1.70;;
72728;SDS011;60843;52.062;4.508;2023-07-31T10:23:31;6.97;;;1.45;;
72728;SDS011;60843;52.062;4.508;2023-07-31T10:25:56;9.85;;;1.85;;
72728;SDS011;60843;52.062;4.508;2023-07-31T10:28:22;7.28;;;1.50;;
72728;SDS011;60843;52.062;4.508;2023-07-31T10:30:47;11.60;;;2.20;;
72728;SDS011;60843;52.062;4.508;2023-07-31T10:33:14;7.63;;;1.67;;
72728;SDS011;60843;52.062;4.508;2023-07-31T10:35:40;8.48;;;1.70;;
72728;SDS011;60843;52.062;4.508;2023-07-31T10:38:09;11.15;;;1.85;;
72728;SDS011;60843;52.062;4.508;2023-07-31T10:40:36;10.05;;;1.98;;
72728;SDS011;60843;52.062;4.508;2023-07-31T10:43:02;16.55;;;2.53;;
72728;SDS011;60843;52.062;4.508;2023-07-31T10:45:35;10.02;;;2.05;;
72728;SDS011;60843;52.062;4.508;2023-07-31T10:48:05;6.30;;;1.77;;
72728;SDS011;60843;52.062;4.508;2023-07-31T10:50:32;7.93;;;2.10;;
72728;SDS011;60843;52.062;4.508;2023-07-31T10:53:02;10.88;;;2.20;;
72728;SDS011;60843;52.062;4.508;2023-07-31T10:55:41;7.63;;;1.80;;
72728;SDS011;60843;52.062;4.508;2023-07-31T10:58:09;5.90;;;1.70;;
72728;SDS011;60843;52.062;4.508;2023-07-31T11:00:39;6.13;;;1.75;;
72728;SDS011;60843;52.062;4.508;2023-07-31T11:03:09;7.05;;;1.63;;
72728;SDS011;60843;52.062;4.508;2023-07-31T11:10:44;8.32;;;2.15;;
72728;SDS011;60843;52.062;4.508;2023-07-31T11:13:11;6.63;;;1.63;;
72728;SDS011;60843;52.062;4.508;2023-07-31T11:15:36;6.80;;;1.48;;
72728;SDS011;60843;52.062;4.508;2023-07-31T11:18:02;8.95;;;1.52;;
72728;SDS011;60843;52.062;4.508;2023-07-31T11:20:32;10.65;;;1.98;;
72728;SDS011;60843;52.062;4.508;2023-07-31T11:23:02;13.52;;;2.20;;
72728;SDS011;60843;52.062;4.508;2023-07-31T11:25:29;8.25;;;1.40;;
72728;SDS011;60843;52.062;4.508;2023-07-31T11:27:55;14.60;;;2.03;;
72728;SDS011;60843;52.062;4.508;2023-07-31T11:30:21;5.40;;;1.40;;
72728;SDS011;60843;52.062;4.508;2023-07-31T11:32:47;9.07;;;2.00;;
72728;SDS011;60843;52.062;4.508;2023-07-31T11:35:12;10.13;;;1.42;;
72728;SDS011;60843;52.062;4.508;2023-07-31T11:37:39;8.65;;;1.95;;
72728;SDS011;60843;52.062;4.508;2023-07-31T11:40:07;8.70;;;1.80;;
72728;SDS011;60843;52.062;4.508;2023-07-31T11:42:34;7.40;;;1.27;;
72728;SDS011;60843;52.062;4.508;2023-07-31T11:45:01;6.63;;;1.52;;
72728;SDS011;60843;52.062;4.508;2023-07-31T11:47:31;6.10;;;1.35;;
72728;SDS011;60843;52.062;4.508;2023-07-31T11:49:59;9.00;;;1.60;;
72728;SDS011;60843;52.062;4.508;2023-07-31T11:52:25;8.82;;;1.45;;
72728;SDS011;60843;52.062;4.508;2023-07-31T11:54:50;8.32;;;1.50;;
72728;SDS011;60843;52.062;4.508;2023-07-31T11:57:16;7.38;;;1.30;;
72728;SDS011;60843;52.062;4.508;2023-07-31T11:59:41;12.30;;;1.80;;
72728;SDS011;60843;52.062;4.508;2023-07-31T12:02:07;6.95;;;1.50;;
72728;SDS011;60843;52.062;4.508;2023-07-31T12:04:32;2.97;;;1.05;;
72728;SDS011;60843;52.062;4.508;2023-07-31T12:07:00;5.18;;;1.10;;
72728;SDS011;60843;52.062;4.508;2023-07-31T12:09:25;5.15;;;1.38;;
72728;SDS011;60843;52.062;4.508;2023-07-31T12:11:51;4.57;;;1.50;;
72728;SDS011;60843;52.062;4.508;2023-07-31T12:14:27;5.07;;;1.00;;
72728;SDS011;60843;52.062;4.508;2023-07-31T12:17:00;8.75;;;1.50;;
72728;SDS011;60843;52.062;4.508;2023-07-31T12:19:26;8.40;;;1.50;;
72728;SDS011;60843;52.062;4.508;2023-07-31T12:21:58;5.35;;;1.25;;
72728;SDS011;60843;52.062;4.508;2023-07-31T12:24:25;5.03;;;1.30;;
72728;SDS011;60843;52.062;4.508;2023-07-31T12:26:51;8.38;;;1.40;;
72728;SDS011;60843;52.062;4.508;2023-07-31T12:29:17;6.57;;;1.40;;
72728;SDS011;60843;52.062;4.508;2023-07-31T12:31:43;6.68;;;1.23;;
72728;SDS011;60843;52.062;4.508;2023-07-31T12:34:15;4.45;;;1.23;;
72728;SDS011;60843;52.062;4.508;2023-07-31T12:39:08;5.10;;;1.10;;
72728;SDS011;60843;52.062;4.508;2023-07-31T12:41:33;9.37;;;1.13;;
72728;SDS011;60843;52.062;4.508;2023-07-31T12:43:59;7.93;;;1.20;;
72728;SDS011;60843;52.062;4.508;2023-07-31T12:46:24;2.38;;;1.02;;
72728;SDS011;60843;52.062;4.508;2023-07-31T12:48:50;4.53;;;1.00;;
72728;SDS011;60843;52.062;4.508;2023-07-31T12:51:15;5.03;;;1.30;;
72728;SDS011;60843;52.062;4.508;2023-07-31T12:53:40;14.20;;;1.40;;
72728;SDS011;60843;52.062;4.508;2023-07-31T12:56:06;3.50;;;1.23;;
72728;SDS011;60843;52.062;4.508;2023-07-31T12:58:31;3.38;;;1.10;;
72728;SDS011;60843;52.062;4.508;2023-07-31T13:00:57;3.05;;;1.10;;
72728;SDS011;60843;52.062;4.508;2023-07-31T13:03:22;4.27;;;1.00;;
72728;SDS011;60843;52.062;4.508;2023-07-31T13:05:47;2.43;;;0.90;;
72728;SDS011;60843;52.062;4.508;2023-07-31T13:08:13;10.32;;;2.20;;
72728;SDS011;60843;52.062;4.508;2023-07-31T13:10:40;29.42;;;9.30;;
72728;SDS011;60843;52.062;4.508;2023-07-31T13:13:06;12.43;;;3.53;;
72728;SDS011;60843;52.062;4.508;2023-07-31T13:15:31;5.82;;;1.48;;
72728;SDS011;60843;52.062;4.508;2023-07-31T13:17:57;4.55;;;1.80;;
72728;SDS011;60843;52.062;4.508;2023-07-31T13:20:22;4.40;;;1.08;;
72728;SDS011;60843;52.062;4.508;2023-07-31T13:22:48;5.10;;;0.82;;
72728;SDS011;60843;52.062;4.508;2023-07-31T13:25:13;3.45;;;1.08;;
72728;SDS011;60843;52.062;4.508;2023-07-31T13:27:39;3.22;;;1.10;;
72728;SDS011;60843;52.062;4.508;2023-07-31T13:30:04;3.13;;;0.80;;
72728;SDS011;60843;52.062;4.508;2023-07-31T13:32:30;1.88;;;1.10;;
72728;SDS011;60843;52.062;4.508;2023-07-31T13:34:56;2.92;;;0.80;;
72728;SDS011;60843;52.062;4.508;2023-07-31T13:37:21;2.50;;;1.10;;
72728;SDS011;60843;52.062;4.508;2023-07-31T13:39:47;1.60;;;0.97;;
72728;SDS011;60843;52.062;4.508;2023-07-31T13:42:12;2.30;;;0.70;;
72728;SDS011;60843;52.062;4.508;2023-07-31T13:44:38;1.27;;;0.90;;
72728;SDS011;60843;52.062;4.508;2023-07-31T13:47:04;2.80;;;0.70;;
72728;SDS011;60843;52.062;4.508;2023-07-31T13:49:29;5.60;;;1.10;;
72728;SDS011;60843;52.062;4.508;2023-07-31T13:51:55;0.75;;;0.55;;
72728;SDS011;60843;52.062;4.508;2023-07-31T13:54:22;1.60;;;0.70;;
72728;SDS011;60843;52.062;4.508;2023-07-31T13:56:48;2.08;;;0.70;;
72728;SDS011;60843;52.062;4.508;2023-07-31T13:59:13;1.42;;;0.60;;
72728;SDS011;60843;52.062;4.508;2023-07-31T14:01:41;2.70;;;0.70;;
72728;SDS011;60843;52.062;4.508;2023-07-31T14:04:06;1.03;;;0.83;;
72728;SDS011;60843;52.062;4.508;2023-07-31T14:06:31;2.30;;;0.60;;
72728;SDS011;60843;52.062;4.508;2023-07-31T14:08:57;3.57;;;0.53;;
72728;SDS011;60843;52.062;4.508;2023-07-31T14:11:22;1.17;;;0.57;;
72728;SDS011;60843;52.062;4.508;2023-07-31T14:13:48;0.90;;;0.35;;
72728;SDS011;60843;52.062;4.508;2023-07-31T14:16:14;21.27;;;7.65;;
72728;SDS011;60843;52.062;4.508;2023-07-31T14:18:40;34.38;;;11.13;;
72728;SDS011;60843;52.062;4.508;2023-07-31T14:21:05;0.70;;;0.50;;
72728;SDS011;60843;52.062;4.508;2023-07-31T14:23:30;1.50;;;0.40;;
72728;SDS011;60843;52.062;4.508;2023-07-31T14:25:56;1.60;;;0.57;;
72728;SDS011;60843;52.062;4.508;2023-07-31T14:28:22;0.33;;;0.23;;
72728;SDS011;60843;52.062;4.508;2023-07-31T14:30:47;0.82;;;0.55;;
72728;SDS011;60843;52.062;4.508;2023-07-31T14:33:13;0.90;;;0.47;;
72728;SDS011;60843;52.062;4.508;2023-07-31T14:35:38;0.83;;;0.50;;
72728;SDS011;60843;52.062;4.508;2023-07-31T14:38:04;1.23;;;0.50;;
72728;SDS011;60843;52.062;4.508;2023-07-31T14:40:29;0.77;;;0.47;;
72728;SDS011;60843;52.062;4.508;2023-07-31T14:42:54;1.00;;;0.40;;
72728;SDS011;60843;52.062;4.508;2023-07-31T14:45:20;1.50;;;0.28;;
72728;SDS011;60843;52.062;4.508;2023-07-31T14:47:45;0.50;;;0.40;;
72728;SDS011;60843;52.062;4.508;2023-07-31T14:50:10;0.30;;;0.25;;
72728;SDS011;60843;52.062;4.508;2023-07-31T14:52:36;0.50;;;0.30;;